createdAt,value
2023-01-17T00:01:29.420Z,1.49
2023-01-17T00:04:14.634Z,1.45
2023-01-17T00:07:01.311Z,1.45
2023-01-17T00:09:46.785Z,1.49
2023-01-17T00:12:14.687Z,1.51
2023-01-17T00:14:42.515Z,1.42
2023-01-17T00:17:10.403Z,1.37
2023-01-17T00:19:55.680Z,1.41
2023-01-17T00:22:44.995Z,1.40
2023-01-17T00:25:31.419Z,1.46
2023-01-17T00:27:58.344Z,1.41
2023-01-17T00:30:26.020Z,1.45
2023-01-17T00:32:53.032Z,1.36
2023-01-17T00:35:21.509Z,1.40
2023-01-17T00:37:49.838Z,1.38
2023-01-17T00:40:16.753Z,1.37
2023-01-17T00:42:43.491Z,1.39
2023-01-17T00:45:29.124Z,1.41
2023-01-17T00:48:14.617Z,1.43
2023-01-17T00:51:00.028Z,1.43
2023-01-17T00:53:46.856Z,1.34
2023-01-17T00:56:32.374Z,1.42
2023-01-17T00:59:17.882Z,1.43
2023-01-17T01:02:03.393Z,1.40
2023-01-17T01:04:48.696Z,1.36
2023-01-17T01:07:34.283Z,1.41
2023-01-17T01:10:21.039Z,1.38
2023-01-17T01:13:06.496Z,1.33
2023-01-17T01:15:52.006Z,1.32
2023-01-17T01:18:37.442Z,1.23
2023-01-17T01:21:23.400Z,1.22
2023-01-17T01:24:09.116Z,1.18
2023-01-17T01:26:55.818Z,1.18
2023-01-17T01:29:41.283Z,1.12
2023-01-17T01:32:26.726Z,1.11
2023-01-17T01:34:54.576Z,1.03
2023-01-17T01:37:22.449Z,1.07
2023-01-17T01:39:50.304Z,0.97
2023-01-17T01:42:19.784Z,0.96
2023-01-17T01:44:49.992Z,0.97
2023-01-17T01:47:25.249Z,0.96
2023-01-17T01:49:53.833Z,1.01
2023-01-17T01:52:27.168Z,0.91
2023-01-17T01:55:02.237Z,0.88
2023-01-17T01:57:38.949Z,0.75
2023-01-17T02:00:11.712Z,0.60
2023-01-17T02:02:40.987Z,0.52
2023-01-17T02:05:12.121Z,0.45
2023-01-17T02:07:47.929Z,0.37
2023-01-17T02:10:15.949Z,0.43
2023-01-17T02:12:46.665Z,0.48
2023-01-17T02:15:14.613Z,0.56
2023-01-17T02:17:56.477Z,0.47
2023-01-17T02:20:52.849Z,0.43
2023-01-17T02:24:02.668Z,0.31
2023-01-17T02:26:54.237Z,0.19
2023-01-17T02:29:55.383Z,0.12
2023-01-17T02:32:38.621Z,0.15
2023-01-17T02:35:16.962Z,0.17
2023-01-17T02:37:57.317Z,0.15
2023-01-17T02:40:31.664Z,0.15
2023-01-17T02:43:05.596Z,0.14
2023-01-17T02:45:33.500Z,0.16
2023-01-17T02:48:02.718Z,0.19
2023-01-17T02:50:50.559Z,0.16
2023-01-17T02:53:34.108Z,0.29
2023-01-17T02:56:14.146Z,0.32
2023-01-17T02:59:00.705Z,0.37
2023-01-17T03:01:38.819Z,0.29
2023-01-17T03:04:16.252Z,0.33
2023-01-17T03:06:53.229Z,0.31
2023-01-17T03:09:23.101Z,0.31
2023-01-17T03:11:51.056Z,0.38
2023-01-17T03:14:18.933Z,0.43
2023-01-17T03:16:47.219Z,0.47
2023-01-17T03:19:16.483Z,0.41
2023-01-17T03:21:44.391Z,0.45
2023-01-17T03:24:12.263Z,0.51
2023-01-17T03:26:40.127Z,0.52
2023-01-17T03:29:07.965Z,0.53
2023-01-17T03:31:35.975Z,0.60
2023-01-17T03:34:03.839Z,0.53
2023-01-17T03:36:33.114Z,0.53
2023-01-17T03:39:02.993Z,0.57
2023-01-17T03:41:31.257Z,0.57
2023-01-17T03:43:59.084Z,0.54
2023-01-17T03:46:28.959Z,0.55
2023-01-17T03:48:57.041Z,0.51
2023-01-17T03:51:24.918Z,0.48
2023-01-17T03:53:54.316Z,0.58
2023-01-17T03:56:22.554Z,0.57
2023-01-17T03:58:51.505Z,0.62
2023-01-17T04:01:19.965Z,0.59
2023-01-17T04:03:47.838Z,0.58
2023-01-17T04:06:15.692Z,0.59
2023-01-17T04:08:46.204Z,0.58
2023-01-17T04:11:16.556Z,0.57
2023-01-17T04:13:49.353Z,0.59
2023-01-17T04:16:19.629Z,0.58
2023-01-17T04:18:49.255Z,0.59
2023-01-17T04:21:21.580Z,0.57
2023-01-17T04:23:55.849Z,0.58
2023-01-17T04:26:25.364Z,0.60
2023-01-17T04:28:53.289Z,0.63
2023-01-17T04:31:30.339Z,0.58
2023-01-17T04:33:58.238Z,0.62
2023-01-17T04:36:29.179Z,0.49
2023-01-17T04:38:57.071Z,0.60
2023-01-17T04:41:34.986Z,0.57
2023-01-17T04:44:45.229Z,0.56
2023-01-17T04:47:17.357Z,0.60
2023-01-17T04:49:56.360Z,0.55
2023-01-17T04:53:15.257Z,0.55
2023-01-17T04:55:46.689Z,0.58
2023-01-17T04:58:16.157Z,0.63
2023-01-17T05:00:44.203Z,0.55
2023-01-17T05:03:12.212Z,0.57
2023-01-17T05:05:40.214Z,0.63
2023-01-17T05:08:08.132Z,0.64
2023-01-17T05:10:36.411Z,0.60
2023-01-17T05:13:04.465Z,0.54
2023-01-17T05:15:34.101Z,0.60
2023-01-17T05:18:01.987Z,0.56
2023-01-17T05:20:29.899Z,0.52
2023-01-17T05:22:59.132Z,0.54
2023-01-17T05:25:29.413Z,0.57
2023-01-17T05:27:58.329Z,0.53
2023-01-17T05:30:26.545Z,0.58
2023-01-17T05:32:58.010Z,0.55
2023-01-17T05:35:28.599Z,0.59
2023-01-17T05:37:57.482Z,0.52
2023-01-17T05:40:27.569Z,0.55
2023-01-17T05:42:57.769Z,0.52
2023-01-17T05:45:27.941Z,0.56
2023-01-17T05:47:58.434Z,0.54
2023-01-17T05:50:28.379Z,0.56
2023-01-17T05:52:58.977Z,0.48
2023-01-17T05:55:29.046Z,0.52
2023-01-17T05:57:57.093Z,0.53
2023-01-17T06:00:25.786Z,0.60
2023-01-17T06:02:55.761Z,0.58
2023-01-17T06:05:26.306Z,0.52
2023-01-17T06:07:54.760Z,0.57
2023-01-17T06:10:23.587Z,0.54
2023-01-17T06:12:51.674Z,0.65
2023-01-17T06:15:19.919Z,0.52
2023-01-17T06:17:50.218Z,0.60
2023-01-17T06:20:18.413Z,0.70
2023-01-17T06:22:47.654Z,0.81
2023-01-17T06:25:15.710Z,0.75
2023-01-17T06:27:43.508Z,0.78
2023-01-17T06:30:12.549Z,0.72
2023-01-17T06:32:40.415Z,0.42
2023-01-17T06:35:08.670Z,0.25
2023-01-17T06:37:36.537Z,0.05
2023-01-17T06:40:07.034Z,0.07
2023-01-17T06:42:35.330Z,0.07
2023-01-17T06:45:03.180Z,0.20
2023-01-17T06:47:31.122Z,0.09
2023-01-17T06:50:00.188Z,0.10
2023-01-17T06:52:28.030Z,0.24
2023-01-17T06:54:55.882Z,0.30
2023-01-17T06:57:25.207Z,0.38
2023-01-17T06:59:54.970Z,0.45
2023-01-17T07:02:22.830Z,0.33
2023-01-17T07:04:50.767Z,0.31
2023-01-17T07:07:18.651Z,0.29
2023-01-17T07:09:46.520Z,0.41
2023-01-17T07:12:14.954Z,0.38
2023-01-17T07:14:44.229Z,0.38
2023-01-17T07:17:12.339Z,0.48
2023-01-17T07:19:40.208Z,0.50
2023-01-17T07:22:08.126Z,0.43
2023-01-17T07:24:37.501Z,0.44
2023-01-17T07:27:05.419Z,0.44
2023-01-17T07:29:33.369Z,0.40
2023-01-17T07:32:03.281Z,0.41
2023-01-17T07:34:31.202Z,0.28
2023-01-17T07:36:59.061Z,0.17
2023-01-17T07:39:27.804Z,0.10
2023-01-17T07:41:55.982Z,0.09
2023-01-17T07:44:23.893Z,0.20
2023-01-17T07:46:51.798Z,0.14
2023-01-17T07:49:21.054Z,0.11
2023-01-17T07:51:48.969Z,0.19
2023-01-17T07:54:16.828Z,0.21
2023-01-17T07:56:47.117Z,0.24
2023-01-17T07:59:15.033Z,0.29
2023-01-17T08:01:43.130Z,0.28
2023-01-17T08:04:11.701Z,0.46
2023-01-17T08:06:47.470Z,0.51
2023-01-17T08:09:15.381Z,0.63
2023-01-17T08:11:43.318Z,0.74
2023-01-17T08:14:11.215Z,0.73
2023-01-17T08:16:40.127Z,0.85
2023-01-17T08:19:08.018Z,0.87
2023-01-17T08:21:35.870Z,0.83
2023-01-17T08:24:05.860Z,0.92
2023-01-17T08:26:33.757Z,0.99
2023-01-17T08:29:02.437Z,0.93
2023-01-17T08:31:33.408Z,0.97
2023-01-17T08:34:01.755Z,0.88
2023-01-17T08:36:31.504Z,0.74
2023-01-17T08:39:00.016Z,0.75
2023-01-17T08:41:29.227Z,0.77
2023-01-17T08:43:57.163Z,0.82
2023-01-17T08:46:25.318Z,0.80
2023-01-17T08:48:55.742Z,0.81
2023-01-17T08:51:24.879Z,0.87
2023-01-17T08:53:52.802Z,0.97
2023-01-17T08:56:20.866Z,1.04
2023-01-17T08:58:50.701Z,1.18
2023-01-17T09:01:18.852Z,1.10
2023-01-17T09:03:49.203Z,1.07
2023-01-17T09:06:17.549Z,1.18
2023-01-17T09:08:46.940Z,1.12
2023-01-17T09:11:17.817Z,1.09
2023-01-17T09:13:45.775Z,1.17
2023-01-17T09:16:15.127Z,1.15
2023-01-17T09:18:43.017Z,1.15
2023-01-17T09:21:11.929Z,1.10
2023-01-17T09:23:39.817Z,1.04
2023-01-17T09:26:07.754Z,1.18
2023-01-17T09:28:40.932Z,1.32
2023-01-17T09:31:09.353Z,1.36
2023-01-17T09:33:41.074Z,1.49
2023-01-17T09:36:09.659Z,1.52
2023-01-17T09:38:37.874Z,1.57
2023-01-17T09:41:22.797Z,1.60
2023-01-17T09:43:56.922Z,1.56
2023-01-17T09:46:30.568Z,1.70
2023-01-17T09:49:06.053Z,1.39
2023-01-17T09:51:34.154Z,1.44
2023-01-17T09:54:02.892Z,1.47
2023-01-17T09:56:36.771Z,1.32
2023-01-17T09:59:32.222Z,1.33
2023-01-17T10:02:26.335Z,1.63
2023-01-17T10:05:20.162Z,1.69
2023-01-17T10:08:09.591Z,1.64
2023-01-17T10:10:43.175Z,1.57
2023-01-17T10:13:28.361Z,1.43
2023-01-17T10:16:11.668Z,1.60
2023-01-17T10:19:04.527Z,1.80
2023-01-17T10:22:04.208Z,1.91
2023-01-17T10:24:54.902Z,1.99
2023-01-17T10:27:29.974Z,2.08
2023-01-17T10:29:58.307Z,2.02
2023-01-17T10:32:33.960Z,1.96
2023-01-17T10:35:14.208Z,2.00
2023-01-17T10:37:46.522Z,2.04
2023-01-17T10:40:24.266Z,1.93
2023-01-17T10:43:02.263Z,2.03
2023-01-17T10:45:41.439Z,1.98
2023-01-17T10:48:17.065Z,1.90
2023-01-17T10:50:57.668Z,1.92
2023-01-17T10:53:46.728Z,1.88
2023-01-17T10:56:19.403Z,2.02
2023-01-17T10:58:50.206Z,1.85
2023-01-17T11:01:21.663Z,1.98
2023-01-17T11:03:53.769Z,2.08
2023-01-17T11:06:24.009Z,2.13
2023-01-17T11:08:55.523Z,2.20
2023-01-17T11:11:30.168Z,2.19
2023-01-17T11:14:01.517Z,2.17
2023-01-17T11:16:32.519Z,1.93
2023-01-17T11:19:14.768Z,1.88
2023-01-17T11:21:53.105Z,2.16
2023-01-17T11:24:34.120Z,2.39
2023-01-17T11:27:02.757Z,2.35
2023-01-17T11:29:36.794Z,2.37
2023-01-17T11:32:30.969Z,2.49
2023-01-17T11:35:25.475Z,2.58
2023-01-17T11:37:59.792Z,2.38
2023-01-17T11:40:33.706Z,2.56
2023-01-17T11:43:23.014Z,2.72
2023-01-17T11:46:17.116Z,2.63
2023-01-17T11:48:51.044Z,2.56
2023-01-17T11:51:25.347Z,2.40
2023-01-17T11:53:56.202Z,2.55
2023-01-17T11:56:34.052Z,2.66
2023-01-17T11:59:29.952Z,2.71
2023-01-17T12:02:33.582Z,2.69
2023-01-17T12:05:18.587Z,2.60
2023-01-17T12:08:01.451Z,2.59
2023-01-17T12:10:38.360Z,2.65
2023-01-17T12:13:37.685Z,2.57
2023-01-17T12:16:32.897Z,2.66
2023-01-17T12:19:18.480Z,2.51
2023-01-17T12:22:02.621Z,2.62
2023-01-17T12:24:53.106Z,2.57
2023-01-17T12:27:32.201Z,2.46
2023-01-17T12:30:30.783Z,2.56
2023-01-17T12:33:19.661Z,2.61
2023-01-17T12:35:54.530Z,2.60
2023-01-17T12:38:32.824Z,2.64
2023-01-17T12:41:07.125Z,2.60
2023-01-17T12:43:38.473Z,2.62
2023-01-17T12:46:20.743Z,2.58
2023-01-17T12:48:55.255Z,2.47
2023-01-17T12:51:30.084Z,2.46
2023-01-17T12:54:06.449Z,2.42
2023-01-17T12:56:42.347Z,2.36
2023-01-17T12:59:20.762Z,2.36
2023-01-17T13:01:57.685Z,2.53
2023-01-17T13:04:30.707Z,2.69
2023-01-17T13:07:13.558Z,2.68
2023-01-17T13:09:49.266Z,2.75
2023-01-17T13:12:21.124Z,2.79
2023-01-17T13:14:50.320Z,2.85
2023-01-17T13:17:35.701Z,2.87
2023-01-17T13:20:15.839Z,2.81
2023-01-17T13:22:46.843Z,2.88
2023-01-17T13:25:33.793Z,2.80
2023-01-17T13:28:18.828Z,2.70
2023-01-17T13:31:05.965Z,2.63
2023-01-17T13:33:50.394Z,2.64
2023-01-17T13:36:40.501Z,2.58
2023-01-17T13:39:39.139Z,2.61
2023-01-17T13:42:18.943Z,2.75
2023-01-17T13:44:47.845Z,2.77
2023-01-17T13:47:40.747Z,2.66
2023-01-17T13:50:46.032Z,2.56
2023-01-17T13:53:56.800Z,2.65
2023-01-17T13:56:37.455Z,2.64
2023-01-17T13:59:27.239Z,2.50
2023-01-17T14:01:56.360Z,2.49
2023-01-17T14:04:26.399Z,2.44
2023-01-17T14:06:59.744Z,2.41
2023-01-17T14:09:38.378Z,2.44
2023-01-17T14:12:26.719Z,2.48
2023-01-17T14:15:00.580Z,2.39
2023-01-17T14:17:49.405Z,2.40
2023-01-17T14:21:05.506Z,2.30
2023-01-17T14:23:48.113Z,2.22
2023-01-17T14:26:36.644Z,2.25
2023-01-17T14:29:57.638Z,2.23
2023-01-17T14:32:31.427Z,2.20
2023-01-17T14:35:00.051Z,2.26
2023-01-17T14:37:39.484Z,2.20
2023-01-17T14:40:20.655Z,2.19
2023-01-17T14:42:55.278Z,2.07
2023-01-17T14:45:28.924Z,2.09
2023-01-17T14:48:00.772Z,2.08
2023-01-17T14:50:31.078Z,2.02
2023-01-17T14:53:18.913Z,1.98
2023-01-17T14:55:59.979Z,1.96
2023-01-17T14:58:30.116Z,1.92
2023-01-17T15:01:01.409Z,1.88
2023-01-17T15:03:34.770Z,1.82
2023-01-17T15:06:12.416Z,1.85
2023-01-17T15:08:40.694Z,1.84
2023-01-17T15:11:17.806Z,1.89
2023-01-17T15:13:50.634Z,1.89
2023-01-17T15:16:22.413Z,1.87
2023-01-17T15:18:52.950Z,1.80
2023-01-17T15:21:24.135Z,1.74
2023-01-17T15:23:56.692Z,1.72
2023-01-17T15:26:27.511Z,1.77
2023-01-17T15:29:08.114Z,1.73
2023-01-17T15:31:43.118Z,1.73
2023-01-17T15:34:28.047Z,1.80
2023-01-17T15:36:58.539Z,1.81
2023-01-17T15:39:30.229Z,1.74
2023-01-17T15:42:00.254Z,1.75
2023-01-17T15:44:46.881Z,1.72
2023-01-17T15:47:29.486Z,1.74
2023-01-17T15:50:00.800Z,1.77
2023-01-17T15:52:29.126Z,1.80
2023-01-17T15:55:01.489Z,1.81
2023-01-17T15:57:36.894Z,1.80
2023-01-17T16:00:08.766Z,1.82
2023-01-17T16:02:43.191Z,1.84
2023-01-17T16:05:41.810Z,1.87
2023-01-17T16:08:27.106Z,1.71
2023-01-17T16:10:58.544Z,1.76
2023-01-17T16:13:26.499Z,1.71
2023-01-17T16:15:54.549Z,1.71
2023-01-17T16:18:25.860Z,1.72
2023-01-17T16:21:01.103Z,1.75
2023-01-17T16:23:29.771Z,1.70
2023-01-17T16:25:57.784Z,1.71
2023-01-17T16:28:25.623Z,1.73
2023-01-17T16:30:54.348Z,1.75
2023-01-17T16:33:22.308Z,1.72
2023-01-17T16:35:51.192Z,1.77
2023-01-17T16:38:20.842Z,1.70
2023-01-17T16:40:49.618Z,1.72
2023-01-17T16:43:19.201Z,1.71
2023-01-17T16:45:49.047Z,1.72
2023-01-17T16:48:19.415Z,1.64
2023-01-17T16:50:50.652Z,1.64
2023-01-17T16:53:24.635Z,1.70
2023-01-17T16:55:56.261Z,1.67
2023-01-17T16:58:24.558Z,1.63
2023-01-17T17:00:52.597Z,1.60
2023-01-17T17:03:22.276Z,1.60
2023-01-17T17:05:57.241Z,1.54
2023-01-17T17:08:28.694Z,1.49
2023-01-17T17:11:06.989Z,1.53
2023-01-17T17:13:36.105Z,1.46
2023-01-17T17:16:10.694Z,1.51
2023-01-17T17:18:38.901Z,1.55
2023-01-17T17:21:06.864Z,1.60
2023-01-17T17:23:36.173Z,1.59
2023-01-17T17:26:04.063Z,1.57
2023-01-17T17:28:32.333Z,1.55
2023-01-17T17:31:09.068Z,1.58
2023-01-17T17:33:36.995Z,1.59
2023-01-17T17:36:06.520Z,1.62
2023-01-17T17:38:36.558Z,1.60
2023-01-17T17:41:09.691Z,1.61
2023-01-17T17:43:40.466Z,1.60
2023-01-17T17:46:08.863Z,1.57
2023-01-17T17:48:37.130Z,1.64
2023-01-17T17:51:06.029Z,1.61
2023-01-17T17:53:34.006Z,1.68
2023-01-17T17:56:07.779Z,1.64
2023-01-17T17:58:36.501Z,1.65
2023-01-17T18:01:06.206Z,1.66
2023-01-17T18:03:34.584Z,1.70
2023-01-17T18:06:04.885Z,1.65
2023-01-17T18:08:33.776Z,1.60
2023-01-17T18:11:03.103Z,1.54
2023-01-17T18:13:33.832Z,1.54
2023-01-17T18:16:07.612Z,1.55
2023-01-17T18:18:36.964Z,1.56
2023-01-17T18:21:11.268Z,1.52
2023-01-17T18:23:41.756Z,1.51
2023-01-17T18:26:18.011Z,1.49
2023-01-17T18:28:47.442Z,1.51
2023-01-17T18:31:15.393Z,1.56
2023-01-17T18:33:43.353Z,1.43
2023-01-17T18:36:13.623Z,1.29
2023-01-17T18:38:43.940Z,1.17
2023-01-17T18:41:14.842Z,1.23
2023-01-17T18:43:42.905Z,1.22
2023-01-17T18:46:13.764Z,1.15
2023-01-17T18:48:42.591Z,1.10
2023-01-17T18:51:13.284Z,1.03
2023-01-17T18:53:42.845Z,1.11
2023-01-17T18:56:13.381Z,1.07
2023-01-17T18:58:43.893Z,1.12
2023-01-17T19:01:16.266Z,1.10
2023-01-17T19:03:46.505Z,1.08
2023-01-17T19:06:17.908Z,0.95
2023-01-17T19:08:46.753Z,0.96
2023-01-17T19:11:14.621Z,1.03
2023-01-17T19:13:42.768Z,0.97
2023-01-17T19:16:16.833Z,1.00
2023-01-17T19:18:44.727Z,1.03
2023-01-17T19:21:15.355Z,1.01
2023-01-17T19:23:44.396Z,1.00
2023-01-17T19:26:16.361Z,1.00
2023-01-17T19:28:46.699Z,1.00
2023-01-17T19:31:20.416Z,1.04
2023-01-17T19:33:49.885Z,1.07
2023-01-17T19:36:20.039Z,1.02
2023-01-17T19:39:03.363Z,0.92
2023-01-17T19:41:33.831Z,0.98
2023-01-17T19:44:03.253Z,1.03
2023-01-17T19:46:33.394Z,0.97
2023-01-17T19:49:02.480Z,0.96
2023-01-17T19:51:30.365Z,0.97
2023-01-17T19:54:01.237Z,0.95
2023-01-17T19:56:30.581Z,0.99
2023-01-17T19:59:01.323Z,1.06
2023-01-17T20:01:33.246Z,1.11
2023-01-17T20:04:02.996Z,1.12
2023-01-17T20:06:34.279Z,1.14
2023-01-17T20:09:02.902Z,1.12
2023-01-17T20:11:30.804Z,1.13
2023-01-17T20:14:00.340Z,1.20
2023-01-17T20:16:30.590Z,1.27
2023-01-17T20:19:02.552Z,1.04
2023-01-17T20:21:32.113Z,1.04
2023-01-17T20:24:03.259Z,0.99
2023-01-17T20:26:35.535Z,1.03
2023-01-17T20:29:10.624Z,1.01
2023-01-17T20:31:40.992Z,0.94
2023-01-17T20:34:12.632Z,0.79
2023-01-17T20:36:42.154Z,0.80
2023-01-17T20:39:12.384Z,0.64
2023-01-17T20:41:42.410Z,0.62
2023-01-17T20:44:15.080Z,0.64
2023-01-17T20:46:44.035Z,0.53
2023-01-17T20:49:19.943Z,0.45
2023-01-17T20:51:48.329Z,0.32
2023-01-17T20:54:18.950Z,0.34
2023-01-17T20:56:48.365Z,0.33
2023-01-17T20:59:18.620Z,0.51
2023-01-17T21:01:47.258Z,0.43
2023-01-17T21:04:19.048Z,0.43
2023-01-17T21:06:47.566Z,0.42
2023-01-17T21:09:17.279Z,0.38
2023-01-17T21:11:45.266Z,0.35
2023-01-17T21:14:13.447Z,0.30
2023-01-17T21:16:42.181Z,0.30
2023-01-17T21:19:12.068Z,0.31
2023-01-17T21:21:41.585Z,0.37
2023-01-17T21:25:20.424Z,0.42
2023-01-17T21:27:06.294Z,0.46
2023-01-17T21:29:42.381Z,0.38
2023-01-17T21:32:10.431Z,0.45
2023-01-17T21:34:38.438Z,0.48
2023-01-17T21:37:07.702Z,0.46
2023-01-17T21:39:35.662Z,0.41
2023-01-17T21:42:05.014Z,0.44
2023-01-17T21:44:42.273Z,0.47
2023-01-17T21:47:20.613Z,0.41
2023-01-17T21:49:48.583Z,0.47
2023-01-17T21:52:20.747Z,0.48
2023-01-17T21:55:06.594Z,0.42
2023-01-17T21:57:48.452Z,0.41
2023-01-17T22:00:17.262Z,0.40
2023-01-17T22:02:46.674Z,0.44
2023-01-17T22:06:05.536Z,0.45
2023-01-17T22:08:15.283Z,0.43
2023-01-17T22:10:46.399Z,0.43
2023-01-17T22:13:15.368Z,0.44
2023-01-17T22:15:43.927Z,0.43
2023-01-17T22:18:12.260Z,0.43
2023-01-17T22:20:41.578Z,0.43
2023-01-17T22:23:11.819Z,0.46
2023-01-17T22:25:39.723Z,0.47
2023-01-17T22:28:07.641Z,0.52
2023-01-17T22:30:36.692Z,0.57
2023-01-17T22:33:04.773Z,0.53
2023-01-17T22:35:32.697Z,0.54
2023-01-17T22:38:01.572Z,0.48
2023-01-17T22:40:32.605Z,0.47
2023-01-17T22:43:00.609Z,0.41
2023-01-17T22:45:29.029Z,0.38
2023-01-17T22:47:56.874Z,0.41
2023-01-17T22:50:24.799Z,0.23
2023-01-17T22:52:52.693Z,0.15
2023-01-17T22:55:21.526Z,0.20
2023-01-17T22:57:50.780Z,0.15
2023-01-17T23:00:19.241Z,0.13
2023-01-17T23:02:47.130Z,0.03
2023-01-17T23:05:15.040Z,0.07
2023-01-17T23:07:46.459Z,0.15
2023-01-17T23:10:37.012Z,0.20
2023-01-17T23:13:09.754Z,0.23
2023-01-17T23:15:56.625Z,0.28
2023-01-17T23:18:42.278Z,0.08
2023-01-17T23:21:10.077Z,-0.01
2023-01-17T23:23:37.925Z,0.00
2023-01-17T23:26:05.969Z,0.10
2023-01-17T23:28:34.247Z,0.15
2023-01-17T23:31:05.020Z,0.23
2023-01-17T23:33:33.361Z,0.17
2023-01-17T23:36:01.544Z,0.18
2023-01-17T23:38:33.997Z,0.25
2023-01-17T23:41:22.408Z,0.33
2023-01-17T23:43:55.422Z,0.26
2023-01-17T23:46:25.437Z,0.22
2023-01-17T23:48:54.810Z,0.25
2023-01-17T23:51:22.822Z,0.25
2023-01-17T23:53:53.396Z,0.15
2023-01-17T23:56:24.742Z,0.19
2023-01-17T23:58:53.973Z,0.15
